createdAt,value
2023-05-12T00:00:02.553Z,1.52
2023-05-12T00:02:38.302Z,1.60
2023-05-12T00:05:05.591Z,1.35
2023-05-12T00:07:32.012Z,1.30
2023-05-12T00:09:58.432Z,1.25
2023-05-12T00:12:24.883Z,1.13
2023-05-12T00:14:51.277Z,1.20
2023-05-12T00:17:17.759Z,1.27
2023-05-12T00:19:44.229Z,0.93
2023-05-12T00:22:11.594Z,1.40
2023-05-12T00:24:39.720Z,1.27
2023-05-12T00:27:07.301Z,0.95
2023-05-12T00:29:34.443Z,1.35
2023-05-12T00:32:01.155Z,1.20
2023-05-12T00:34:28.266Z,1.25
2023-05-12T00:36:54.795Z,1.77
2023-05-12T00:39:21.469Z,1.45
2023-05-12T00:41:50.098Z,0.98
2023-05-12T00:44:18.426Z,1.17
2023-05-12T00:46:45.102Z,1.10
2023-05-12T00:49:12.855Z,1.15
2023-05-12T00:51:40.118Z,1.30
2023-05-12T00:54:06.678Z,0.98
2023-05-12T00:56:39.179Z,1.60
2023-05-12T00:59:08.140Z,1.40
2023-05-12T01:01:37.815Z,1.05
2023-05-12T01:04:04.630Z,1.02
2023-05-12T01:06:55.432Z,2.10
2023-05-12T01:09:22.115Z,1.17
2023-05-12T01:11:48.694Z,1.40
2023-05-12T01:14:15.753Z,1.35
2023-05-12T01:16:52.675Z,1.30
2023-05-12T01:19:49.599Z,1.25
2023-05-12T01:22:17.544Z,0.82
2023-05-12T01:25:02.568Z,1.05
2023-05-12T01:27:31.405Z,1.27
2023-05-12T01:30:00.377Z,1.33
2023-05-12T01:32:27.634Z,0.77
2023-05-12T01:34:54.154Z,1.05
2023-05-12T01:37:21.381Z,0.60
2023-05-12T01:39:48.194Z,0.85
2023-05-12T01:42:18.675Z,1.10
2023-05-12T01:44:45.387Z,1.00
2023-05-12T01:47:15.359Z,1.02
2023-05-12T01:49:45.838Z,1.10
2023-05-12T01:52:14.712Z,0.93
2023-05-12T01:54:41.325Z,0.80
2023-05-12T01:57:08.085Z,1.00
2023-05-12T01:59:36.914Z,0.65
2023-05-12T02:02:05.177Z,1.85
2023-05-12T02:04:31.673Z,0.82
2023-05-12T02:06:59.815Z,0.50
2023-05-12T02:09:26.672Z,1.83
2023-05-12T02:11:57.233Z,0.60
2023-05-12T02:14:23.699Z,1.23
2023-05-12T02:16:52.708Z,0.50
2023-05-12T02:19:21.017Z,0.43
2023-05-12T02:21:48.630Z,0.70
2023-05-12T02:24:16.528Z,1.85
2023-05-12T02:26:43.719Z,0.55
2023-05-12T02:29:11.861Z,0.40
2023-05-12T02:31:38.967Z,1.25
2023-05-12T02:34:14.889Z,0.50
2023-05-12T02:36:41.595Z,0.45
2023-05-12T02:39:08.161Z,0.75
2023-05-12T02:41:35.353Z,0.55
2023-05-12T02:44:01.987Z,0.90
2023-05-12T02:46:28.455Z,0.63
2023-05-12T02:48:55.379Z,1.90
2023-05-12T02:51:21.875Z,1.95
2023-05-12T02:53:48.370Z,1.70
2023-05-12T02:56:15.172Z,1.13
2023-05-12T02:58:41.922Z,1.02
2023-05-12T03:01:11.244Z,1.05
2023-05-12T03:03:39.314Z,1.05
2023-05-12T03:06:06.609Z,1.00
2023-05-12T03:08:33.290Z,2.45
2023-05-12T03:10:59.984Z,2.50
2023-05-12T03:13:26.493Z,1.38
2023-05-12T03:15:52.977Z,2.95
2023-05-12T03:18:19.705Z,2.63
2023-05-12T03:20:46.950Z,1.67
2023-05-12T03:23:15.037Z,1.85
2023-05-12T03:25:41.486Z,2.42
2023-05-12T03:28:07.941Z,2.00
2023-05-12T03:30:34.495Z,2.08
2023-05-12T03:33:01.041Z,2.38
2023-05-12T03:35:27.776Z,3.10
2023-05-12T03:37:54.368Z,3.17
2023-05-12T03:40:21.154Z,3.22
2023-05-12T03:42:48.002Z,2.70
2023-05-12T03:45:14.468Z,3.53
2023-05-12T03:47:41.191Z,3.70
2023-05-12T03:50:08.555Z,3.50
2023-05-12T03:52:38.182Z,4.50
2023-05-12T03:55:06.783Z,4.15
2023-05-12T03:57:34.481Z,4.78
2023-05-12T04:00:01.032Z,3.92
2023-05-12T04:02:28.022Z,5.30
2023-05-12T04:04:54.620Z,4.32
2023-05-12T04:07:21.554Z,4.47
2023-05-12T04:09:47.998Z,4.75
2023-05-12T04:12:14.585Z,4.97
2023-05-12T04:14:43.109Z,4.63
2023-05-12T04:17:10.872Z,4.82
2023-05-12T04:19:37.342Z,5.05
2023-05-12T04:22:05.008Z,5.65
2023-05-12T04:24:31.474Z,6.05
2023-05-12T04:26:58.306Z,5.55
2023-05-12T04:29:25.229Z,6.15
2023-05-12T04:31:51.754Z,5.45
2023-05-12T04:34:18.245Z,5.95
2023-05-12T04:36:44.695Z,5.00
2023-05-12T04:39:11.415Z,7.18
2023-05-12T04:41:37.908Z,8.00
2023-05-12T04:44:05.078Z,5.70
2023-05-12T04:46:32.695Z,5.75
2023-05-12T04:49:00.142Z,6.50
2023-05-12T04:51:26.700Z,7.28
2023-05-12T04:53:53.197Z,6.38
2023-05-12T04:56:22.069Z,7.55
2023-05-12T04:58:48.565Z,7.68
2023-05-12T05:01:15.134Z,7.63
2023-05-12T05:03:41.780Z,6.70
2023-05-12T05:06:08.453Z,7.63
2023-05-12T05:08:34.982Z,8.15
2023-05-12T05:11:02.964Z,7.78
2023-05-12T05:13:31.226Z,7.30
2023-05-12T05:15:57.798Z,8.48
2023-05-12T05:18:25.406Z,8.13
2023-05-12T05:20:58.436Z,8.88
2023-05-12T05:23:26.316Z,7.65
2023-05-12T05:25:53.322Z,8.05
2023-05-12T05:28:19.793Z,8.10
2023-05-12T05:30:46.415Z,8.48
2023-05-12T05:33:14.026Z,7.25
2023-05-12T05:35:41.914Z,9.00
2023-05-12T05:38:09.676Z,9.80
2023-05-12T05:40:49.298Z,8.90
2023-05-12T05:43:19.136Z,8.50
2023-05-12T05:45:45.856Z,8.50
2023-05-12T05:48:13.641Z,9.75
2023-05-12T05:50:40.172Z,9.95
2023-05-12T05:53:06.865Z,8.65
2023-05-12T05:55:33.491Z,9.30
2023-05-12T05:58:00.739Z,9.57
2023-05-12T06:00:27.315Z,9.02
2023-05-12T06:02:55.827Z,9.23
2023-05-12T06:05:22.762Z,9.40
2023-05-12T06:07:49.546Z,9.98
2023-05-12T06:10:15.994Z,8.82
2023-05-12T06:12:43.217Z,8.32
2023-05-12T06:15:10.219Z,11.70
2023-05-12T06:17:36.768Z,9.23
2023-05-12T06:20:05.181Z,10.55
2023-05-12T06:22:31.685Z,9.70
2023-05-12T06:25:00.321Z,9.27
2023-05-12T06:27:26.746Z,9.40
2023-05-12T06:29:53.414Z,8.55
2023-05-12T06:32:19.894Z,8.75
2023-05-12T06:34:46.430Z,9.40
2023-05-12T06:37:12.894Z,9.18
2023-05-12T06:39:39.384Z,8.70
2023-05-12T06:42:06.141Z,9.23
2023-05-12T06:44:42.011Z,9.98
2023-05-12T06:47:09.320Z,9.48
2023-05-12T06:49:37.052Z,8.88
2023-05-12T06:52:04.809Z,8.95
2023-05-12T06:54:32.996Z,9.98
2023-05-12T06:57:00.025Z,9.35
2023-05-12T06:59:27.583Z,9.25
2023-05-12T07:01:55.594Z,9.45
2023-05-12T07:04:25.092Z,9.30
2023-05-12T07:06:53.395Z,10.00
2023-05-12T07:09:20.137Z,10.10
2023-05-12T07:11:47.004Z,9.40
2023-05-12T07:14:13.572Z,10.23
2023-05-12T07:16:39.983Z,9.40
2023-05-12T07:19:08.981Z,9.68
2023-05-12T07:21:37.117Z,9.85
2023-05-12T07:24:03.901Z,10.07
2023-05-12T07:26:30.707Z,9.23
2023-05-12T07:28:57.377Z,9.70
2023-05-12T07:31:23.982Z,9.38
2023-05-12T07:33:50.679Z,9.18
2023-05-12T07:36:20.683Z,11.63
2023-05-12T07:38:48.868Z,8.88
2023-05-12T07:41:17.389Z,9.18
2023-05-12T07:43:43.834Z,8.90
2023-05-12T07:46:10.375Z,8.30
2023-05-12T07:48:39.856Z,9.75
2023-05-12T07:51:07.863Z,8.60
2023-05-12T07:53:34.774Z,7.50
2023-05-12T07:56:01.775Z,8.00
2023-05-12T07:58:28.528Z,7.47
2023-05-12T08:01:00.480Z,7.47
2023-05-12T08:03:27.060Z,7.75
2023-05-12T08:05:53.696Z,7.22
2023-05-12T08:08:21.142Z,7.40
2023-05-12T08:10:47.634Z,6.88
2023-05-12T08:13:14.222Z,6.70
2023-05-12T08:15:40.896Z,7.53
2023-05-12T08:18:10.464Z,6.53
2023-05-12T08:20:39.741Z,7.85
2023-05-12T08:23:06.152Z,6.60
2023-05-12T08:25:34.851Z,7.15
2023-05-12T08:28:01.417Z,6.50
2023-05-12T08:30:28.053Z,6.63
2023-05-12T08:32:56.187Z,6.63
2023-05-12T08:35:24.903Z,8.05
2023-05-12T08:37:51.408Z,6.30
2023-05-12T08:40:22.341Z,7.90
2023-05-12T08:43:23.862Z,6.57
2023-05-12T08:45:50.935Z,6.20
2023-05-12T08:48:19.814Z,6.40
2023-05-12T08:50:49.709Z,5.90
2023-05-12T08:53:18.800Z,6.57
2023-05-12T08:56:01.162Z,5.63
2023-05-12T08:58:41.760Z,5.55
2023-05-12T09:01:12.061Z,4.90
2023-05-12T09:03:38.915Z,5.32
2023-05-12T09:06:06.602Z,5.80
2023-05-12T09:08:34.814Z,5.97
2023-05-12T09:11:02.020Z,5.85
2023-05-12T09:13:35.375Z,5.28
2023-05-12T09:16:04.376Z,4.25
2023-05-12T09:18:52.587Z,4.57
2023-05-12T09:21:20.602Z,4.13
2023-05-12T09:23:54.230Z,3.92
2023-05-12T09:26:22.558Z,3.72
2023-05-12T09:28:53.819Z,3.47
2023-05-12T09:31:24.431Z,3.85
2023-05-12T09:33:52.232Z,2.70
2023-05-12T09:36:21.199Z,2.10
2023-05-12T09:38:59.787Z,2.17
2023-05-12T09:41:26.302Z,2.35
2023-05-12T09:43:53.522Z,3.00
2023-05-12T09:46:20.263Z,2.90
2023-05-12T09:48:48.126Z,2.70
2023-05-12T09:51:21.146Z,2.58
2023-05-12T09:53:47.587Z,3.17
2023-05-12T09:56:14.422Z,3.10
2023-05-12T09:58:48.617Z,3.13
2023-05-12T10:01:23.288Z,3.05
2023-05-12T10:03:55.672Z,2.58
2023-05-12T10:06:32.212Z,2.10
2023-05-12T10:09:23.861Z,2.03
2023-05-12T10:11:53.772Z,2.25
2023-05-12T10:14:26.037Z,2.13
2023-05-12T10:16:53.447Z,2.15
2023-05-12T10:19:20.597Z,2.10
2023-05-12T10:21:47.239Z,1.52
2023-05-12T10:24:17.181Z,1.52
2023-05-12T10:26:44.687Z,1.80
2023-05-12T10:29:12.725Z,2.00
2023-05-12T10:31:39.762Z,1.67
2023-05-12T10:34:06.938Z,3.17
2023-05-12T10:36:46.135Z,1.52
2023-05-12T10:39:15.490Z,1.80
2023-05-12T10:41:45.565Z,1.17
2023-05-12T10:44:15.397Z,1.20
2023-05-12T10:46:42.222Z,1.15
2023-05-12T10:49:10.464Z,1.02
2023-05-12T10:51:43.183Z,1.05
2023-05-12T10:54:14.880Z,1.30
2023-05-12T10:56:45.130Z,1.00
2023-05-12T10:59:20.155Z,1.40
2023-05-12T11:02:13.612Z,1.08
2023-05-12T11:04:53.126Z,0.80
2023-05-12T11:07:24.206Z,1.55
2023-05-12T11:09:58.565Z,0.68
2023-05-12T11:12:32.201Z,0.90
2023-05-12T11:15:03.278Z,0.50
2023-05-12T11:17:29.983Z,0.73
2023-05-12T11:19:56.713Z,0.70
2023-05-12T11:22:23.780Z,0.30
2023-05-12T11:24:52.465Z,0.73
2023-05-12T11:27:21.144Z,2.22
2023-05-12T11:29:59.551Z,0.55
2023-05-12T11:32:26.401Z,0.70
2023-05-12T11:34:53.257Z,0.80
2023-05-12T11:37:21.127Z,0.73
2023-05-12T11:39:48.288Z,0.47
2023-05-12T11:42:16.265Z,0.98
2023-05-12T11:44:49.846Z,0.50
2023-05-12T11:47:18.937Z,0.95
2023-05-12T11:49:54.360Z,0.50
2023-05-12T11:52:22.624Z,0.40
2023-05-12T11:54:51.475Z,1.00
2023-05-12T11:57:34.400Z,0.70
2023-05-12T12:00:06.873Z,0.82
2023-05-12T12:02:33.878Z,0.68
2023-05-12T12:05:00.660Z,0.60
2023-05-12T12:07:34.174Z,0.50
2023-05-12T12:10:17.802Z,0.68
2023-05-12T12:12:45.274Z,0.75
2023-05-12T12:15:14.515Z,1.10
2023-05-12T12:17:41.162Z,0.45
2023-05-12T12:20:09.134Z,1.27
2023-05-12T12:22:35.957Z,0.50
2023-05-12T12:25:03.688Z,0.95
2023-05-12T12:27:30.657Z,0.60
2023-05-12T12:29:57.261Z,1.25
2023-05-12T12:32:23.897Z,0.60
2023-05-12T12:34:50.433Z,0.88
2023-05-12T12:37:17.213Z,0.60
2023-05-12T12:39:43.893Z,0.60
2023-05-12T12:42:10.311Z,0.60
2023-05-12T12:44:36.691Z,0.57
2023-05-12T12:47:03.624Z,1.60
2023-05-12T12:49:30.125Z,0.65
2023-05-12T12:51:56.602Z,1.85
2023-05-12T12:54:25.134Z,0.40
2023-05-12T12:56:51.598Z,0.70
2023-05-12T12:59:18.032Z,0.82
2023-05-12T13:01:44.473Z,1.23
2023-05-12T13:04:10.982Z,0.68
2023-05-12T13:06:37.833Z,0.98
2023-05-12T13:09:04.342Z,1.23
2023-05-12T13:11:30.915Z,0.98
2023-05-12T13:13:59.345Z,0.90
2023-05-12T13:16:25.880Z,1.42
2023-05-12T13:18:52.498Z,0.82
2023-05-12T13:21:19.106Z,0.77
2023-05-12T13:23:45.673Z,1.40
2023-05-12T13:26:12.521Z,1.15
2023-05-12T13:28:38.971Z,1.50
2023-05-12T13:31:06.172Z,1.30
2023-05-12T13:33:32.816Z,1.23
2023-05-12T13:36:00.359Z,1.25
2023-05-12T13:38:26.991Z,1.55
2023-05-12T13:40:53.527Z,0.73
2023-05-12T13:43:20.017Z,1.30
2023-05-12T13:45:46.760Z,1.27
2023-05-12T13:48:13.778Z,0.63
2023-05-12T13:50:40.322Z,1.05
2023-05-12T13:53:06.717Z,2.42
2023-05-12T13:55:34.364Z,1.00
2023-05-12T13:58:00.837Z,0.85
2023-05-12T14:00:29.734Z,0.95
2023-05-12T14:02:57.934Z,0.82
2023-05-12T14:05:24.943Z,1.15
2023-05-12T14:07:51.403Z,0.70
2023-05-12T14:10:18.603Z,0.70
2023-05-12T14:12:45.395Z,0.70
2023-05-12T14:17:46.293Z,0.88
2023-05-12T14:20:12.943Z,1.13
2023-05-12T14:22:39.501Z,1.02
2023-05-12T14:25:06.494Z,0.82
2023-05-12T14:27:33.014Z,1.00
2023-05-12T14:30:00.720Z,1.00
2023-05-12T14:32:27.356Z,1.10
2023-05-12T14:34:53.909Z,0.70
2023-05-12T14:37:20.353Z,1.08
2023-05-12T14:39:46.976Z,0.77
2023-05-12T14:42:14.898Z,1.00
2023-05-12T14:44:41.335Z,1.33
2023-05-12T14:47:09.053Z,0.82
2023-05-12T14:49:35.735Z,0.88
2023-05-12T14:52:02.654Z,0.95
2023-05-12T14:54:29.194Z,1.35
2023-05-12T14:56:56.437Z,1.00
2023-05-12T14:59:22.951Z,1.55
2023-05-12T15:01:49.494Z,0.93
2023-05-12T15:04:15.986Z,0.95
2023-05-12T15:06:42.668Z,0.75
2023-05-12T15:09:09.640Z,1.10
2023-05-12T15:11:36.929Z,0.95
2023-05-12T15:14:04.620Z,0.95
2023-05-12T15:16:32.782Z,0.80
2023-05-12T15:19:00.057Z,0.95
2023-05-12T15:21:26.613Z,1.13
2023-05-12T15:23:53.134Z,1.00
2023-05-12T15:28:49.110Z,1.42
2023-05-12T15:31:15.671Z,1.05
2023-05-12T15:33:42.271Z,1.08
2023-05-12T15:36:11.244Z,0.40
2023-05-12T15:38:37.848Z,2.03
2023-05-12T15:41:04.438Z,0.68
2023-05-12T15:43:30.967Z,1.00
2023-05-12T15:45:57.472Z,1.48
2023-05-12T15:48:24.011Z,1.38
2023-05-12T15:50:51.110Z,1.85
2023-05-12T15:53:17.570Z,1.67
2023-05-12T15:55:44.208Z,2.60
2023-05-12T15:58:13.164Z,2.75
2023-05-12T16:00:40.311Z,2.70
2023-05-12T16:03:06.987Z,3.03
2023-05-12T16:05:37.742Z,3.33
2023-05-12T16:08:04.244Z,2.67
2023-05-12T16:10:30.735Z,2.85
2023-05-12T16:12:57.237Z,2.55
2023-05-12T16:15:23.725Z,2.60
2023-05-12T16:17:50.315Z,1.95
2023-05-12T16:20:16.838Z,2.22
2023-05-12T16:22:43.328Z,2.22
2023-05-12T16:25:09.913Z,2.10
2023-05-12T16:27:36.768Z,2.30
2023-05-12T16:30:03.901Z,1.75
2023-05-12T16:32:30.431Z,2.15
2023-05-12T16:34:57.273Z,2.03
2023-05-12T16:37:23.871Z,1.95
2023-05-12T16:39:50.828Z,2.20
2023-05-12T16:42:17.359Z,1.90
2023-05-12T16:44:43.789Z,2.15
2023-05-12T16:47:10.339Z,2.33
2023-05-12T16:49:36.833Z,2.20
2023-05-12T16:52:03.540Z,2.17
2023-05-12T16:54:32.874Z,1.92
2023-05-12T16:57:02.047Z,2.13
2023-05-12T16:59:29.171Z,2.50
2023-05-12T17:01:55.787Z,2.53
2023-05-12T17:04:22.305Z,3.13
2023-05-12T17:06:51.109Z,2.42
2023-05-12T17:09:18.090Z,3.25
2023-05-12T17:11:45.504Z,2.80
2023-05-12T17:14:12.441Z,2.83
2023-05-12T17:16:40.039Z,2.70
2023-05-12T17:21:36.070Z,2.85
2023-05-12T17:24:02.811Z,2.92
2023-05-12T17:26:29.421Z,3.38
2023-05-12T17:28:56.025Z,2.60
2023-05-12T17:31:22.906Z,2.75
2023-05-12T17:33:49.464Z,2.70
2023-05-12T17:36:18.443Z,2.70
2023-05-12T17:38:45.282Z,2.42
2023-05-12T17:41:11.937Z,2.70
2023-05-12T17:43:39.494Z,2.53
2023-05-12T17:46:07.591Z,2.90
2023-05-12T17:48:34.118Z,2.65
2023-05-12T17:51:01.534Z,2.42
2023-05-12T17:53:28.036Z,2.60
2023-05-12T17:55:57.368Z,2.30
2023-05-12T17:58:25.433Z,2.83
2023-05-12T18:00:52.547Z,3.17
2023-05-12T18:03:23.680Z,2.70
2023-05-12T18:05:51.326Z,2.05
2023-05-12T18:08:18.111Z,2.60
2023-05-12T18:10:44.922Z,2.67
2023-05-12T18:13:11.383Z,1.95
2023-05-12T18:15:38.246Z,2.30
2023-05-12T18:18:05.139Z,2.20
2023-05-12T18:20:31.679Z,2.55
2023-05-12T18:22:58.392Z,2.13
2023-05-12T18:25:24.866Z,1.77
2023-05-12T18:27:52.084Z,1.88
2023-05-12T18:30:18.829Z,1.52
2023-05-12T18:32:45.260Z,1.25
2023-05-12T18:35:11.703Z,0.90
2023-05-12T18:37:38.561Z,1.00
2023-05-12T18:40:06.870Z,0.80
2023-05-12T18:42:34.328Z,1.10
2023-05-12T18:45:00.791Z,1.08
2023-05-12T18:47:27.313Z,1.83
2023-05-12T18:49:53.949Z,0.90
2023-05-12T18:52:21.234Z,1.10
2023-05-12T18:54:49.409Z,1.25
2023-05-12T18:57:16.428Z,1.13
2023-05-12T18:59:42.987Z,1.05
2023-05-12T19:02:09.701Z,1.20
2023-05-12T19:04:36.709Z,0.90
2023-05-12T19:07:03.787Z,1.73
2023-05-12T19:09:30.228Z,1.40
2023-05-12T19:11:56.682Z,1.88
2023-05-12T19:14:23.258Z,2.70
2023-05-12T19:16:49.740Z,2.42
2023-05-12T19:19:16.256Z,3.05
2023-05-12T19:21:42.842Z,1.70
2023-05-12T19:24:10.549Z,1.88
2023-05-12T19:26:37.414Z,1.70
2023-05-12T19:29:04.443Z,2.97
2023-05-12T19:31:31.107Z,1.60
2023-05-12T19:33:58.886Z,1.85
2023-05-12T19:36:25.450Z,1.80
2023-05-12T19:38:52.006Z,2.20
2023-05-12T19:41:18.534Z,2.05
2023-05-12T19:43:45.036Z,2.00
2023-05-12T19:46:11.574Z,2.15
2023-05-12T19:48:38.547Z,1.60
2023-05-12T19:51:04.989Z,1.63
2023-05-12T19:53:31.481Z,1.80
2023-05-12T19:55:57.950Z,1.85
2023-05-12T19:58:26.802Z,1.85
2023-05-12T20:00:54.489Z,1.83
2023-05-12T20:03:21.435Z,1.88
2023-05-12T20:05:48.656Z,2.05
2023-05-12T20:08:15.219Z,1.90
2023-05-12T20:10:41.681Z,2.10
2023-05-12T20:13:08.089Z,2.42
2023-05-12T20:15:34.735Z,2.10
2023-05-12T20:18:01.332Z,2.45
2023-05-12T20:20:27.951Z,2.15
2023-05-12T20:22:54.417Z,2.00
2023-05-12T20:25:21.156Z,2.45
2023-05-12T20:27:48.154Z,2.78
2023-05-12T20:30:14.724Z,2.85
2023-05-12T20:32:41.224Z,3.17
2023-05-12T20:35:08.207Z,2.28
2023-05-12T20:37:34.932Z,2.40
2023-05-12T20:40:55.151Z,2.80
2023-05-12T20:43:22.693Z,4.75
2023-05-12T20:45:49.257Z,2.70
2023-05-12T20:48:15.772Z,2.60
2023-05-12T20:50:43.051Z,3.25
2023-05-12T20:53:09.540Z,2.83
2023-05-12T20:55:36.031Z,3.72
2023-05-12T20:58:02.513Z,2.83
2023-05-12T21:00:29.023Z,3.45
2023-05-12T21:02:55.857Z,3.65
2023-05-12T21:05:22.661Z,2.88
2023-05-12T21:07:56.777Z,2.95
2023-05-12T21:10:23.522Z,2.65
2023-05-12T21:12:50.693Z,2.92
2023-05-12T21:15:17.103Z,3.42
2023-05-12T21:17:43.536Z,3.38
2023-05-12T21:20:11.849Z,3.67
2023-05-12T21:22:40.509Z,3.30
2023-05-12T21:25:07.397Z,3.15
2023-05-12T21:27:34.470Z,3.30
2023-05-12T21:30:00.856Z,3.38
2023-05-12T21:32:27.651Z,3.13
2023-05-12T21:34:54.271Z,3.13
2023-05-12T21:37:20.775Z,3.97
2023-05-12T21:39:47.224Z,3.70
2023-05-12T21:42:13.794Z,3.20
2023-05-12T21:44:40.304Z,3.33
2023-05-12T21:47:07.659Z,3.60
2023-05-12T21:49:35.409Z,3.55
2023-05-12T21:52:02.215Z,2.88
2023-05-12T21:54:31.946Z,3.25
2023-05-12T21:56:58.397Z,3.30
2023-05-12T21:59:25.071Z,3.63
2023-05-12T22:01:51.603Z,3.15
2023-05-12T22:04:18.129Z,3.47
2023-05-12T22:06:44.583Z,3.70
2023-05-12T22:09:13.519Z,3.28
2023-05-12T22:11:39.984Z,2.92
2023-05-12T22:14:06.392Z,2.92
2023-05-12T22:16:41.360Z,3.17
2023-05-12T22:19:08.999Z,2.88
2023-05-12T22:21:35.590Z,2.75
2023-05-12T22:24:02.121Z,2.75
2023-05-12T22:26:28.631Z,3.10
2023-05-12T22:28:55.107Z,2.65
2023-05-12T22:31:21.625Z,2.60
2023-05-12T22:33:48.212Z,2.42
2023-05-12T22:36:15.336Z,2.72
2023-05-12T22:38:41.803Z,2.45
2023-05-12T22:41:08.236Z,2.67
2023-05-12T22:43:34.654Z,2.50
2023-05-12T22:46:01.178Z,2.20
2023-05-12T22:48:27.629Z,2.28
2023-05-12T22:50:54.529Z,2.28
2023-05-12T22:53:21.075Z,2.45
2023-05-12T22:55:47.569Z,2.08
2023-05-12T22:58:14.304Z,2.13
2023-05-12T23:00:40.809Z,1.98
2023-05-12T23:03:07.407Z,1.85
2023-05-12T23:05:34.022Z,1.67
2023-05-12T23:08:02.750Z,1.80
2023-05-12T23:10:29.697Z,2.15
2023-05-12T23:12:56.279Z,2.35
2023-05-12T23:15:22.781Z,1.58
2023-05-12T23:17:49.268Z,1.27
2023-05-12T23:20:15.837Z,1.67
2023-05-12T23:22:42.308Z,2.28
2023-05-12T23:25:09.542Z,2.22
2023-05-12T23:27:36.799Z,1.75
2023-05-12T23:30:03.453Z,1.88
2023-05-12T23:32:30.076Z,1.83
2023-05-12T23:34:56.605Z,3.63
2023-05-12T23:37:24.509Z,2.08
2023-05-12T23:39:51.180Z,1.88
2023-05-12T23:42:17.756Z,2.47
2023-05-12T23:44:44.231Z,2.55
2023-05-12T23:47:10.729Z,1.92
2023-05-12T23:49:37.230Z,2.03
2023-05-12T23:52:03.966Z,1.52
2023-05-12T23:54:30.814Z,1.70
2023-05-12T23:56:57.351Z,1.83
2023-05-12T23:59:23.806Z,1.67
